sensor_id;sensor_type;location;lat;lon;timestamp;pressure;altitude;pressure_sealevel;temperature;humidity
3960;BME280;1994;48.640;8.894;2022-11-02T00:00:33;96759.84;;;9.33;85.24
3960;BME280;1994;48.640;8.894;2022-11-02T00:02:59;96749.88;;;9.37;85.44
3960;BME280;1994;48.640;8.894;2022-11-02T00:05:26;96766.53;;;9.41;85.75
3960;BME280;1994;48.640;8.894;2022-11-02T00:07:53;96765.13;;;9.45;85.99
3960;BME280;1994;48.640;8.894;2022-11-02T00:10:22;96761.75;;;9.44;86.46
3960;BME280;1994;48.640;8.894;2022-11-02T00:12:49;96767.06;;;9.49;87.08
3960;BME280;1994;48.640;8.894;2022-11-02T00:15:16;96770.63;;;9.55;87.04
3960;BME280;1994;48.640;8.894;2022-11-02T00:17:47;96760.44;;;9.60;88.26
3960;BME280;1994;48.640;8.894;2022-11-02T00:20:17;96759.84;;;9.58;87.59
3960;BME280;1994;48.640;8.894;2022-11-02T00:22:46;96757.50;;;9.56;88.13
3960;BME280;1994;48.640;8.894;2022-11-02T00:25:15;96754.94;;;9.50;89.13
3960;BME280;1994;48.640;8.894;2022-11-02T00:27:47;96758.47;;;9.55;88.57
3960;BME280;1994;48.640;8.894;2022-11-02T00:30:14;96759.69;;;9.53;87.09
3960;BME280;1994;48.640;8.894;2022-11-02T00:32:40;96765.69;;;9.47;86.50
3960;BME280;1994;48.640;8.894;2022-11-02T00:35:07;96772.16;;;9.38;86.30
3960;BME280;1994;48.640;8.894;2022-11-02T00:37:36;96774.13;;;9.36;86.53
3960;BME280;1994;48.640;8.894;2022-11-02T00:40:03;96776.19;;;9.27;86.46
3960;BME280;1994;48.640;8.894;2022-11-02T00:42:29;96785.91;;;9.32;86.91
3960;BME280;1994;48.640;8.894;2022-11-02T00:44:55;96777.16;;;9.33;87.48
3960;BME280;1994;48.640;8.894;2022-11-02T00:47:21;96786.88;;;9.31;87.56
3960;BME280;1994;48.640;8.894;2022-11-02T00:49:47;96783.72;;;9.29;87.62
3960;BME280;1994;48.640;8.894;2022-11-02T00:52:13;96787.06;;;9.36;87.91
3960;BME280;1994;48.640;8.894;2022-11-02T00:54:40;96788.88;;;9.35;89.59
3960;BME280;1994;48.640;8.894;2022-11-02T00:57:06;96789.44;;;9.37;90.01
3960;BME280;1994;48.640;8.894;2022-11-02T00:59:32;96789.97;;;9.46;89.65
3960;BME280;1994;48.640;8.894;2022-11-02T01:01:58;96787.56;;;9.51;89.56
3960;BME280;1994;48.640;8.894;2022-11-02T01:04:24;96793.47;;;9.58;89.43
3960;BME280;1994;48.640;8.894;2022-11-02T01:06:50;96789.91;;;9.59;90.04
3960;BME280;1994;48.640;8.894;2022-11-02T01:09:16;96793.56;;;9.45;90.96
3960;BME280;1994;48.640;8.894;2022-11-02T01:11:42;96780.06;;;9.43;92.42
3960;BME280;1994;48.640;8.894;2022-11-02T01:14:09;96794.16;;;9.47;93.09
3960;BME280;1994;48.640;8.894;2022-11-02T01:16:37;96786.72;;;9.57;93.64
3960;BME280;1994;48.640;8.894;2022-11-02T01:19:03;96788.72;;;9.55;93.65
3960;BME280;1994;48.640;8.894;2022-11-02T01:21:28;96786.72;;;9.57;94.12
3960;BME280;1994;48.640;8.894;2022-11-02T01:23:54;96782.38;;;9.51;94.34
3960;BME280;1994;48.640;8.894;2022-11-02T01:26:25;96780.38;;;9.53;94.48
3960;BME280;1994;48.640;8.894;2022-11-02T01:28:53;96775.53;;;9.63;94.37
3960;BME280;1994;48.640;8.894;2022-11-02T01:31:19;96769.63;;;9.56;94.22
3960;BME280;1994;48.640;8.894;2022-11-02T01:33:45;96774.44;;;9.52;94.44
3960;BME280;1994;48.640;8.894;2022-11-02T01:36:14;96774.75;;;9.62;94.22
3960;BME280;1994;48.640;8.894;2022-11-02T01:38:40;96769.50;;;9.69;93.98
3960;BME280;1994;48.640;8.894;2022-11-02T01:41:06;96770.25;;;9.76;93.74
3960;BME280;1994;48.640;8.894;2022-11-02T01:43:36;96756.38;;;9.70;93.57
3960;BME280;1994;48.640;8.894;2022-11-02T01:48:51;96760.84;;;9.57;94.69
3960;BME280;1994;48.640;8.894;2022-11-02T01:51:50;96756.53;;;9.51;95.74
3960;BME280;1994;48.640;8.894;2022-11-02T01:54:19;96763.63;;;9.55;95.67
3960;BME280;1994;48.640;8.894;2022-11-02T01:56:52;96754.41;;;9.66;95.16
3960;BME280;1994;48.640;8.894;2022-11-02T01:59:28;96751.22;;;9.64;94.98
3960;BME280;1994;48.640;8.894;2022-11-02T02:01:55;96742.13;;;9.61;95.07
3960;BME280;1994;48.640;8.894;2022-11-02T02:04:22;96734.13;;;9.63;95.21
3960;BME280;1994;48.640;8.894;2022-11-02T02:06:48;96734.28;;;9.68;95.06
3960;BME280;1994;48.640;8.894;2022-11-02T02:09:15;96733.72;;;9.66;95.31
3960;BME280;1994;48.640;8.894;2022-11-02T02:11:44;96732.72;;;9.67;95.29
3960;BME280;1994;48.640;8.894;2022-11-02T02:14:16;96723.34;;;9.72;95.03
3960;BME280;1994;48.640;8.894;2022-11-02T02:17:23;96722.88;;;9.75;94.84
3960;BME280;1994;48.640;8.894;2022-11-02T02:25:51;96727.69;;;9.72;95.14
3960;BME280;1994;48.640;8.894;2022-11-02T02:34:22;96718.53;;;9.51;96.54
3960;BME280;1994;48.640;8.894;2022-11-02T02:37:04;96715.00;;;9.46;96.42
3960;BME280;1994;48.640;8.894;2022-11-02T02:40:13;96730.25;;;9.54;96.65
3960;BME280;1994;48.640;8.894;2022-11-02T02:45:37;96716.72;;;9.52;96.60
3960;BME280;1994;48.640;8.894;2022-11-02T02:48:20;96711.56;;;9.52;96.76
3960;BME280;1994;48.640;8.894;2022-11-02T02:50:49;96708.81;;;9.47;96.84
3960;BME280;1994;48.640;8.894;2022-11-02T02:53:20;96703.97;;;9.57;96.52
3960;BME280;1994;48.640;8.894;2022-11-02T02:55:48;96705.16;;;9.54;96.53
3960;BME280;1994;48.640;8.894;2022-11-02T02:58:36;96702.78;;;9.53;96.50
3960;BME280;1994;48.640;8.894;2022-11-02T03:01:04;96705.13;;;9.61;95.96
3960;BME280;1994;48.640;8.894;2022-11-02T03:03:33;96703.53;;;9.60;95.92
3960;BME280;1994;48.640;8.894;2022-11-02T03:08:37;96707.88;;;9.66;95.44
3960;BME280;1994;48.640;8.894;2022-11-02T03:11:30;96696.13;;;9.45;95.63
3960;BME280;1994;48.640;8.894;2022-11-02T06:26:50;96835.09;;;9.81;92.28
3960;BME280;1994;48.640;8.894;2022-11-02T06:29:16;96834.94;;;10.00;91.63
3960;BME280;1994;48.640;8.894;2022-11-02T06:31:45;96833.72;;;10.03;90.56
3960;BME280;1994;48.640;8.894;2022-11-02T06:34:14;96838.06;;;10.09;90.13
3960;BME280;1994;48.640;8.894;2022-11-02T06:36:40;96845.25;;;10.07;89.99
3960;BME280;1994;48.640;8.894;2022-11-02T06:39:06;96838.50;;;10.06;90.32
3960;BME280;1994;48.640;8.894;2022-11-02T06:41:32;96851.91;;;10.21;89.85
3960;BME280;1994;48.640;8.894;2022-11-02T06:43:58;96853.16;;;10.12;89.80
3960;BME280;1994;48.640;8.894;2022-11-02T06:46:24;96857.22;;;10.26;90.21
3960;BME280;1994;48.640;8.894;2022-11-02T06:48:50;96860.50;;;10.39;89.65
3960;BME280;1994;48.640;8.894;2022-11-02T06:51:16;96862.38;;;10.50;89.69
3960;BME280;1994;48.640;8.894;2022-11-02T06:53:42;96866.03;;;10.43;89.67
3960;BME280;1994;48.640;8.894;2022-11-02T06:56:08;96877.97;;;10.44;90.33
3960;BME280;1994;48.640;8.894;2022-11-02T06:58:35;96862.75;;;10.54;90.19
3960;BME280;1994;48.640;8.894;2022-11-02T07:01:06;96872.97;;;10.67;90.10
3960;BME280;1994;48.640;8.894;2022-11-02T07:03:33;96884.84;;;10.74;90.06
3960;BME280;1994;48.640;8.894;2022-11-02T07:06:01;96887.78;;;10.78;90.01
3960;BME280;1994;48.640;8.894;2022-11-02T07:08:28;96887.44;;;10.74;90.36
3960;BME280;1994;48.640;8.894;2022-11-02T07:10:54;96891.13;;;10.85;90.31
3960;BME280;1994;48.640;8.894;2022-11-02T07:13:21;96898.44;;;10.70;90.50
3960;BME280;1994;48.640;8.894;2022-11-02T07:15:51;96905.34;;;10.58;91.38
3960;BME280;1994;48.640;8.894;2022-11-02T07:18:17;96914.41;;;10.67;91.15
3960;BME280;1994;48.640;8.894;2022-11-02T07:20:43;96912.97;;;10.53;91.74
3960;BME280;1994;48.640;8.894;2022-11-02T07:23:09;96912.53;;;10.56;91.78
3960;BME280;1994;48.640;8.894;2022-11-02T07:25:35;96914.53;;;10.54;91.93
3960;BME280;1994;48.640;8.894;2022-11-02T07:28:02;96907.47;;;10.43;92.44
3960;BME280;1994;48.640;8.894;2022-11-02T07:30:33;96909.66;;;10.46;92.67
3960;BME280;1994;48.640;8.894;2022-11-02T07:32:59;96906.22;;;10.52;92.56
3960;BME280;1994;48.640;8.894;2022-11-02T07:35:25;96912.38;;;10.51;91.87
3960;BME280;1994;48.640;8.894;2022-11-02T07:38:03;96924.34;;;10.70;91.10
3960;BME280;1994;48.640;8.894;2022-11-02T07:40:31;96914.78;;;11.06;89.94
3960;BME280;1994;48.640;8.894;2022-11-02T07:43:00;96912.91;;;11.31;89.07
3960;BME280;1994;48.640;8.894;2022-11-02T07:45:27;96914.41;;;11.39;89.41
3960;BME280;1994;48.640;8.894;2022-11-02T07:47:54;96914.06;;;11.94;89.40
3960;BME280;1994;48.640;8.894;2022-11-02T07:50:23;96922.72;;;13.21;86.36
3960;BME280;1994;48.640;8.894;2022-11-02T07:52:52;96909.41;;;13.90;83.35
3960;BME280;1994;48.640;8.894;2022-11-02T07:55:22;96911.97;;;14.68;78.95
3960;BME280;1994;48.640;8.894;2022-11-02T07:58:01;96916.91;;;14.86;77.93
3960;BME280;1994;48.640;8.894;2022-11-02T08:00:38;96916.00;;;15.35;76.38
3960;BME280;1994;48.640;8.894;2022-11-02T08:03:07;96918.69;;;15.40;75.58
3960;BME280;1994;48.640;8.894;2022-11-02T08:05:37;96914.72;;;14.78;76.71
3960;BME280;1994;48.640;8.894;2022-11-02T08:08:10;96930.69;;;14.65;77.08
3960;BME280;1994;48.640;8.894;2022-11-02T08:10:36;96928.44;;;14.90;76.04
3960;BME280;1994;48.640;8.894;2022-11-02T08:13:03;96926.59;;;15.07;75.82
3960;BME280;1994;48.640;8.894;2022-11-02T08:15:29;96932.47;;;15.19;73.87
3960;BME280;1994;48.640;8.894;2022-11-02T08:18:19;96929.63;;;15.37;73.16
3960;BME280;1994;48.640;8.894;2022-11-02T08:20:46;96925.31;;;15.74;72.21
3960;BME280;1994;48.640;8.894;2022-11-02T08:23:16;96935.44;;;15.44;73.04
3960;BME280;1994;48.640;8.894;2022-11-02T08:25:43;96932.19;;;15.15;74.06
3960;BME280;1994;48.640;8.894;2022-11-02T08:28:23;96937.81;;;15.29;72.86
3960;BME280;1994;48.640;8.894;2022-11-02T08:30:53;96936.19;;;15.23;73.20
3960;BME280;1994;48.640;8.894;2022-11-02T08:33:19;96943.81;;;15.46;72.72
3960;BME280;1994;48.640;8.894;2022-11-02T08:35:47;96943.56;;;15.69;72.11
3960;BME280;1994;48.640;8.894;2022-11-02T08:38:13;96938.81;;;15.23;72.99
3960;BME280;1994;48.640;8.894;2022-11-02T08:40:39;96948.56;;;15.49;72.14
3960;BME280;1994;48.640;8.894;2022-11-02T08:43:11;96947.34;;;15.56;71.67
3960;BME280;1994;48.640;8.894;2022-11-02T08:45:39;96942.81;;;15.52;71.30
3960;BME280;1994;48.640;8.894;2022-11-02T08:48:06;96946.63;;;16.14;69.98
3960;BME280;1994;48.640;8.894;2022-11-02T08:50:33;96944.84;;;16.46;68.79
3960;BME280;1994;48.640;8.894;2022-11-02T08:52:59;96949.06;;;16.52;68.39
3960;BME280;1994;48.640;8.894;2022-11-02T08:55:28;96949.84;;;16.26;69.00
3960;BME280;1994;48.640;8.894;2022-11-02T08:57:56;96949.28;;;16.19;67.11
3960;BME280;1994;48.640;8.894;2022-11-02T09:00:28;96943.84;;;15.99;67.43
3960;BME280;1994;48.640;8.894;2022-11-02T09:05:38;96953.72;;;15.92;68.68
3960;BME280;1994;48.640;8.894;2022-11-02T09:08:07;96957.28;;;15.81;69.72
3960;BME280;1994;48.640;8.894;2022-11-02T09:10:38;96960.44;;;15.40;70.02
3960;BME280;1994;48.640;8.894;2022-11-02T09:13:08;96957.44;;;15.96;69.09
3960;BME280;1994;48.640;8.894;2022-11-02T09:15:36;96959.59;;;15.56;69.64
3960;BME280;1994;48.640;8.894;2022-11-02T09:18:03;96963.88;;;15.88;68.93
3960;BME280;1994;48.640;8.894;2022-11-02T09:20:29;96963.38;;;15.65;69.11
3960;BME280;1994;48.640;8.894;2022-11-02T09:22:55;96959.06;;;15.16;71.30
3960;BME280;1994;48.640;8.894;2022-11-02T09:25:22;96954.38;;;14.80;71.93
3960;BME280;1994;48.640;8.894;2022-11-02T09:27:52;96960.25;;;14.87;71.19
3960;BME280;1994;48.640;8.894;2022-11-02T09:30:21;96952.00;;;14.95;71.80
3960;BME280;1994;48.640;8.894;2022-11-02T09:32:58;96953.84;;;14.78;72.95
3960;BME280;1994;48.640;8.894;2022-11-02T09:35:43;96949.81;;;14.87;73.02
3960;BME280;1994;48.640;8.894;2022-11-02T09:38:15;96958.66;;;14.86;71.93
3960;BME280;1994;48.640;8.894;2022-11-02T09:41:06;96961.69;;;14.45;72.72
3960;BME280;1994;48.640;8.894;2022-11-02T09:43:39;96959.69;;;14.52;72.19
3960;BME280;1994;48.640;8.894;2022-11-02T09:46:25;96970.66;;;14.21;73.02
3960;BME280;1994;48.640;8.894;2022-11-02T09:49:00;96964.50;;;14.27;73.11
3960;BME280;1994;48.640;8.894;2022-11-02T09:51:37;96967.34;;;14.42;73.06
3960;BME280;1994;48.640;8.894;2022-11-02T09:54:23;96968.50;;;14.62;71.85
3960;BME280;1994;48.640;8.894;2022-11-02T09:56:51;96973.53;;;14.69;72.52
3960;BME280;1994;48.640;8.894;2022-11-02T09:59:25;96975.97;;;14.59;72.36
3960;BME280;1994;48.640;8.894;2022-11-02T10:04:54;96979.06;;;14.56;72.95
3960;BME280;1994;48.640;8.894;2022-11-02T10:14:34;96977.25;;;14.40;72.19
3960;BME280;1994;48.640;8.894;2022-11-02T10:17:23;96978.59;;;14.59;72.19
3960;BME280;1994;48.640;8.894;2022-11-02T10:19:56;96980.34;;;14.53;71.57
3960;BME280;1994;48.640;8.894;2022-11-02T10:22:33;96980.31;;;14.70;71.54
3960;BME280;1994;48.640;8.894;2022-11-02T10:25:05;96971.91;;;15.01;70.56
3960;BME280;1994;48.640;8.894;2022-11-02T10:27:37;96971.16;;;14.67;71.53
3960;BME280;1994;48.640;8.894;2022-11-02T10:32:40;96966.34;;;15.14;69.92
3960;BME280;1994;48.640;8.894;2022-11-02T10:38:09;96960.38;;;14.97;69.34
3960;BME280;1994;48.640;8.894;2022-11-02T10:41:23;96968.75;;;14.99;69.30
3960;BME280;1994;48.640;8.894;2022-11-02T10:52:16;96967.25;;;15.41;67.24
3960;BME280;1994;48.640;8.894;2022-11-02T10:54:43;96963.84;;;15.62;66.79
3960;BME280;1994;48.640;8.894;2022-11-02T10:57:22;96970.00;;;15.99;66.65
3960;BME280;1994;48.640;8.894;2022-11-02T11:00:29;96970.78;;;16.26;65.40
3960;BME280;1994;48.640;8.894;2022-11-02T11:03:09;96969.28;;;16.35;64.37
3960;BME280;1994;48.640;8.894;2022-11-02T11:06:03;96960.41;;;16.36;64.71
3960;BME280;1994;48.640;8.894;2022-11-02T11:09:14;96965.59;;;16.99;62.18
3960;BME280;1994;48.640;8.894;2022-11-02T11:11:43;96957.59;;;16.74;63.00
3960;BME280;1994;48.640;8.894;2022-11-02T11:14:19;96964.66;;;16.42;63.22
3960;BME280;1994;48.640;8.894;2022-11-02T11:16:59;96963.19;;;16.51;64.12
3960;BME280;1994;48.640;8.894;2022-11-02T11:19:40;96971.34;;;16.59;62.10
3960;BME280;1994;48.640;8.894;2022-11-02T11:22:32;96962.81;;;16.74;61.90
3960;BME280;1994;48.640;8.894;2022-11-02T11:25:24;96957.84;;;17.14;59.86
3960;BME280;1994;48.640;8.894;2022-11-02T11:27:58;96962.50;;;17.53;59.86
3960;BME280;1994;48.640;8.894;2022-11-02T11:30:34;96954.16;;;17.15;59.64
3960;BME280;1994;48.640;8.894;2022-11-02T11:33:04;96952.97;;;17.37;59.62
3960;BME280;1994;48.640;8.894;2022-11-02T11:35:37;96959.19;;;17.78;57.85
3960;BME280;1994;48.640;8.894;2022-11-02T11:38:16;96948.75;;;19.13;54.95
3960;BME280;1994;48.640;8.894;2022-11-02T11:40:46;96946.44;;;19.70;52.76
3960;BME280;1994;48.640;8.894;2022-11-02T11:43:22;96949.94;;;19.55;52.88
3960;BME280;1994;48.640;8.894;2022-11-02T11:45:59;96945.66;;;18.56;54.44
3960;BME280;1994;48.640;8.894;2022-11-02T11:48:52;96947.59;;;17.64;56.98
3960;BME280;1994;48.640;8.894;2022-11-02T11:51:33;96930.66;;;17.96;56.48
3960;BME280;1994;48.640;8.894;2022-11-02T11:54:26;96931.94;;;17.84;56.05
3960;BME280;1994;48.640;8.894;2022-11-02T11:57:23;96929.41;;;18.34;55.54
3960;BME280;1994;48.640;8.894;2022-11-02T11:59:50;96933.53;;;17.95;56.10
3960;BME280;1994;48.640;8.894;2022-11-02T12:02:34;96923.59;;;17.92;55.66
3960;BME280;1994;48.640;8.894;2022-11-02T12:05:16;96929.97;;;17.44;57.50
3960;BME280;1994;48.640;8.894;2022-11-02T12:08:41;96913.63;;;17.94;55.91
3960;BME280;1994;48.640;8.894;2022-11-02T12:11:34;96908.31;;;17.74;56.18
3960;BME280;1994;48.640;8.894;2022-11-02T12:17:46;96918.63;;;18.75;54.99
3960;BME280;1994;48.640;8.894;2022-11-02T12:20:50;96909.81;;;17.40;56.89
3960;BME280;1994;48.640;8.894;2022-11-02T12:29:18;96892.63;;;15.98;58.82
3960;BME280;1994;48.640;8.894;2022-11-02T12:52:13;96886.25;;;17.45;52.11
3960;BME280;1994;48.640;8.894;2022-11-02T12:54:58;96886.16;;;17.25;52.81
3960;BME280;1994;48.640;8.894;2022-11-02T12:57:30;96885.28;;;17.04;53.13
3960;BME280;1994;48.640;8.894;2022-11-02T13:00:05;96879.22;;;16.94;52.95
3960;BME280;1994;48.640;8.894;2022-11-02T13:02:44;96880.34;;;17.13;52.41
3960;BME280;1994;48.640;8.894;2022-11-02T13:05:21;96874.53;;;17.01;52.40
3960;BME280;1994;48.640;8.894;2022-11-02T13:10:57;96861.09;;;16.82;53.06
3960;BME280;1994;48.640;8.894;2022-11-02T13:13:50;96875.56;;;16.95;53.80
3960;BME280;1994;48.640;8.894;2022-11-02T13:16:47;96881.94;;;17.19;53.77
3960;BME280;1994;48.640;8.894;2022-11-02T13:19:37;96873.06;;;17.30;52.04
3960;BME280;1994;48.640;8.894;2022-11-02T13:22:06;96865.75;;;17.32;52.26
3960;BME280;1994;48.640;8.894;2022-11-02T13:24:41;96866.94;;;16.99;52.40
3960;BME280;1994;48.640;8.894;2022-11-02T13:27:25;96865.56;;;16.87;52.49
3960;BME280;1994;48.640;8.894;2022-11-02T13:29:56;96857.28;;;17.00;52.86
3960;BME280;1994;48.640;8.894;2022-11-02T13:32:35;96861.84;;;16.73;52.96
3960;BME280;1994;48.640;8.894;2022-11-02T13:35:19;96859.75;;;16.75;53.61
3960;BME280;1994;48.640;8.894;2022-11-02T13:47:44;96858.09;;;17.10;52.37
3960;BME280;1994;48.640;8.894;2022-11-02T13:50:18;96846.03;;;17.09;53.07
3960;BME280;1994;48.640;8.894;2022-11-02T13:52:55;96848.78;;;16.78;52.84
3960;BME280;1994;48.640;8.894;2022-11-02T13:55:49;96847.19;;;16.77;53.34
3960;BME280;1994;48.640;8.894;2022-11-02T13:58:34;96859.84;;;16.95;53.79
3960;BME280;1994;48.640;8.894;2022-11-02T14:01:04;96861.38;;;16.86;52.62
3960;BME280;1994;48.640;8.894;2022-11-02T14:03:56;96864.78;;;16.86;53.92
3960;BME280;1994;48.640;8.894;2022-11-02T14:06:23;96860.09;;;16.88;52.97
3960;BME280;1994;48.640;8.894;2022-11-02T14:09:04;96858.81;;;16.96;53.19
3960;BME280;1994;48.640;8.894;2022-11-02T14:11:45;96847.78;;;16.84;53.27
3960;BME280;1994;48.640;8.894;2022-11-02T14:14:19;96833.63;;;16.85;52.78
3960;BME280;1994;48.640;8.894;2022-11-02T14:16:55;96841.72;;;16.78;53.92
3960;BME280;1994;48.640;8.894;2022-11-02T14:19:49;96841.41;;;16.70;53.88
3960;BME280;1994;48.640;8.894;2022-11-02T14:22:20;96844.78;;;16.65;53.84
3960;BME280;1994;48.640;8.894;2022-11-02T14:44:04;96844.31;;;16.37;54.13
3960;BME280;1994;48.640;8.894;2022-11-02T14:47:14;96843.25;;;16.33;54.66
3960;BME280;1994;48.640;8.894;2022-11-02T14:50:17;96847.59;;;16.17;54.42
3960;BME280;1994;48.640;8.894;2022-11-02T14:55:37;96839.91;;;16.06;55.37
3960;BME280;1994;48.640;8.894;2022-11-02T14:58:17;96840.88;;;15.95;55.45
3960;BME280;1994;48.640;8.894;2022-11-02T15:03:41;96834.09;;;15.99;55.21
3960;BME280;1994;48.640;8.894;2022-11-02T15:11:42;96830.88;;;15.87;56.12
3960;BME280;1994;48.640;8.894;2022-11-02T15:16:55;96822.44;;;15.75;56.42
3960;BME280;1994;48.640;8.894;2022-11-02T15:19:43;96831.97;;;15.64;57.05
3960;BME280;1994;48.640;8.894;2022-11-02T15:25:39;96819.56;;;15.50;57.33
3960;BME280;1994;48.640;8.894;2022-11-02T15:28:15;96808.09;;;15.51;57.40
3960;BME280;1994;48.640;8.894;2022-11-02T15:30:52;96809.03;;;15.40;58.35
3960;BME280;1994;48.640;8.894;2022-11-02T15:33:45;96809.44;;;15.32;58.48
3960;BME280;1994;48.640;8.894;2022-11-02T15:36:35;96812.53;;;15.29;58.91
3960;BME280;1994;48.640;8.894;2022-11-02T15:39:05;96815.72;;;15.31;60.62
3960;BME280;1994;48.640;8.894;2022-11-02T15:42:12;96811.78;;;15.28;60.72
3960;BME280;1994;48.640;8.894;2022-11-02T15:47:58;96796.69;;;15.09;61.43
3960;BME280;1994;48.640;8.894;2022-11-02T16:01:27;96809.31;;;14.52;64.24
3960;BME280;1994;48.640;8.894;2022-11-02T16:03:59;96805.06;;;14.46;64.48
3960;BME280;1994;48.640;8.894;2022-11-02T16:06:35;96802.91;;;14.43;64.40
3960;BME280;1994;48.640;8.894;2022-11-02T16:09:30;96805.63;;;14.32;64.67
3960;BME280;1994;48.640;8.894;2022-11-02T16:12:21;96803.91;;;14.21;65.81
3960;BME280;1994;48.640;8.894;2022-11-02T16:15:26;96804.50;;;14.11;66.59
3960;BME280;1994;48.640;8.894;2022-11-02T16:17:52;96798.22;;;13.91;67.36
3960;BME280;1994;48.640;8.894;2022-11-02T16:20:22;96803.25;;;13.81;68.13
3960;BME280;1994;48.640;8.894;2022-11-02T16:22:54;96797.44;;;13.74;68.30
3960;BME280;1994;48.640;8.894;2022-11-02T16:25:40;96792.59;;;13.66;68.64
3960;BME280;1994;48.640;8.894;2022-11-02T16:28:15;96791.75;;;13.60;68.77
3960;BME280;1994;48.640;8.894;2022-11-02T16:30:56;96791.25;;;13.47;68.65
3960;BME280;1994;48.640;8.894;2022-11-02T16:33:25;96791.38;;;13.24;69.18
3960;BME280;1994;48.640;8.894;2022-11-02T16:35:52;96800.09;;;13.18;69.99
3960;BME280;1994;48.640;8.894;2022-11-02T16:38:19;96798.91;;;13.09;69.87
3960;BME280;1994;48.640;8.894;2022-11-02T16:40:46;96796.09;;;12.99;70.24
3960;BME280;1994;48.640;8.894;2022-11-02T16:43:13;96788.06;;;12.89;70.61
3960;BME280;1994;48.640;8.894;2022-11-02T16:45:40;96779.97;;;12.74;70.96
3960;BME280;1994;48.640;8.894;2022-11-02T16:48:22;96787.81;;;12.62;71.84
3960;BME280;1994;48.640;8.894;2022-11-02T16:53:40;96792.91;;;12.46;72.14
3960;BME280;1994;48.640;8.894;2022-11-02T16:56:27;96786.81;;;12.52;72.00
3960;BME280;1994;48.640;8.894;2022-11-02T16:59:04;96779.97;;;12.34;72.56
3960;BME280;1994;48.640;8.894;2022-11-02T17:01:36;96776.34;;;12.35;73.00
3960;BME280;1994;48.640;8.894;2022-11-02T17:04:14;96775.69;;;12.28;74.52
3960;BME280;1994;48.640;8.894;2022-11-02T17:06:42;96785.72;;;12.25;74.26
3960;BME280;1994;48.640;8.894;2022-11-02T17:09:34;96787.97;;;12.33;73.77
3960;BME280;1994;48.640;8.894;2022-11-02T17:12:12;96783.47;;;12.17;74.74
3960;BME280;1994;48.640;8.894;2022-11-02T17:14:42;96777.16;;;12.13;74.30
3960;BME280;1994;48.640;8.894;2022-11-02T17:17:34;96772.84;;;12.07;73.82
3960;BME280;1994;48.640;8.894;2022-11-02T17:22:38;96778.47;;;11.81;74.45
3960;BME280;1994;48.640;8.894;2022-11-02T17:27:48;96784.56;;;11.75;75.32
3960;BME280;1994;48.640;8.894;2022-11-02T17:33:22;96774.53;;;11.78;74.25
3960;BME280;1994;48.640;8.894;2022-11-02T17:36:04;96770.81;;;11.63;74.23
3960;BME280;1994;48.640;8.894;2022-11-02T17:38:30;96766.22;;;11.47;74.89
3960;BME280;1994;48.640;8.894;2022-11-02T17:40:58;96768.16;;;11.51;74.49
3960;BME280;1994;48.640;8.894;2022-11-02T17:43:26;96771.50;;;11.40;74.77
3960;BME280;1994;48.640;8.894;2022-11-02T17:45:58;96774.53;;;11.26;76.01
3960;BME280;1994;48.640;8.894;2022-11-02T17:48:27;96774.53;;;11.26;75.82
3960;BME280;1994;48.640;8.894;2022-11-02T17:50:55;96766.72;;;11.14;75.89
3960;BME280;1994;48.640;8.894;2022-11-02T17:53:23;96757.59;;;11.12;75.71
3960;BME280;1994;48.640;8.894;2022-11-02T17:55:48;96759.31;;;11.00;76.38
3960;BME280;1994;48.640;8.894;2022-11-02T17:58:14;96763.66;;;11.06;76.53
3960;BME280;1994;48.640;8.894;2022-11-02T18:00:41;96764.88;;;11.03;76.28
3960;BME280;1994;48.640;8.894;2022-11-02T18:03:17;96758.34;;;10.83;76.97
3960;BME280;1994;48.640;8.894;2022-11-02T18:05:44;96754.41;;;10.80;77.16
3960;BME280;1994;48.640;8.894;2022-11-02T18:08:14;96762.41;;;10.79;77.27
3960;BME280;1994;48.640;8.894;2022-11-02T18:10:43;96753.19;;;10.83;77.04
3960;BME280;1994;48.640;8.894;2022-11-02T18:13:21;96751.50;;;10.59;77.60
3960;BME280;1994;48.640;8.894;2022-11-02T18:15:49;96750.47;;;10.60;77.56
3960;BME280;1994;48.640;8.894;2022-11-02T18:18:14;96752.19;;;10.66;77.38
3960;BME280;1994;48.640;8.894;2022-11-02T18:20:41;96749.13;;;10.39;77.59
3960;BME280;1994;48.640;8.894;2022-11-02T18:23:14;96748.66;;;10.31;78.08
3960;BME280;1994;48.640;8.894;2022-11-02T18:25:41;96738.69;;;10.28;78.18
3960;BME280;1994;48.640;8.894;2022-11-02T18:28:07;96737.63;;;10.17;78.13
3960;BME280;1994;48.640;8.894;2022-11-02T18:30:33;96742.00;;;10.17;78.18
3960;BME280;1994;48.640;8.894;2022-11-02T18:32:59;96744.91;;;10.09;78.67
3960;BME280;1994;48.640;8.894;2022-11-02T18:35:26;96729.00;;;10.05;78.84
3960;BME280;1994;48.640;8.894;2022-11-02T18:37:51;96739.28;;;10.12;78.76
3960;BME280;1994;48.640;8.894;2022-11-02T18:40:19;96743.97;;;10.21;78.56
3960;BME280;1994;48.640;8.894;2022-11-02T18:42:49;96740.28;;;10.11;78.60
3960;BME280;1994;48.640;8.894;2022-11-02T18:45:15;96737.81;;;9.98;78.85
3960;BME280;1994;48.640;8.894;2022-11-02T18:47:41;96733.75;;;10.02;78.45
3960;BME280;1994;48.640;8.894;2022-11-02T18:50:10;96731.47;;;9.94;79.17
3960;BME280;1994;48.640;8.894;2022-11-02T18:52:36;96740.59;;;9.96;79.05
3960;BME280;1994;48.640;8.894;2022-11-02T18:55:02;96724.63;;;9.81;79.59
3960;BME280;1994;48.640;8.894;2022-11-02T18:57:31;96730.09;;;9.73;79.87
3960;BME280;1994;48.640;8.894;2022-11-02T18:59:57;96732.03;;;9.78;79.98
3960;BME280;1994;48.640;8.894;2022-11-02T19:02:24;96733.59;;;9.79;79.28
3960;BME280;1994;48.640;8.894;2022-11-02T19:04:50;96719.94;;;9.72;79.42
3960;BME280;1994;48.640;8.894;2022-11-02T19:07:16;96716.63;;;9.65;79.54
3960;BME280;1994;48.640;8.894;2022-11-02T19:10:00;96717.50;;;9.59;79.90
3960;BME280;1994;48.640;8.894;2022-11-02T19:12:28;96724.06;;;9.55;80.27
3960;BME280;1994;48.640;8.894;2022-11-02T19:15:01;96719.91;;;9.54;80.51
3960;BME280;1994;48.640;8.894;2022-11-02T19:17:27;96719.09;;;9.53;80.56
3960;BME280;1994;48.640;8.894;2022-11-02T19:19:53;96705.63;;;9.51;80.82
3960;BME280;1994;48.640;8.894;2022-11-02T19:22:24;96709.97;;;9.51;81.34
3960;BME280;1994;48.640;8.894;2022-11-02T19:24:53;96711.56;;;9.52;81.19
3960;BME280;1994;48.640;8.894;2022-11-02T19:27:23;96708.34;;;9.56;81.00
3960;BME280;1994;48.640;8.894;2022-11-02T19:29:50;96710.84;;;9.45;81.19
3960;BME280;1994;48.640;8.894;2022-11-02T19:32:17;96709.78;;;9.52;80.76
3960;BME280;1994;48.640;8.894;2022-11-02T19:34:43;96695.31;;;9.45;81.01
3960;BME280;1994;48.640;8.894;2022-11-02T19:37:12;96712.69;;;9.38;81.50
3960;BME280;1994;48.640;8.894;2022-11-02T19:39:37;96712.84;;;9.43;81.35
3960;BME280;1994;48.640;8.894;2022-11-02T19:42:03;96723.19;;;9.43;81.44